Time;durP1;ratioP1;P1;durP2;ratioP2;P2;SDS_P1;SDS_P2;PMS_P1;PMS_P2;Temp;Humidity;BMP_temperature;BMP_pressure;BME280_temperature;BME280_humidity;BME280_pressure;Samples;Min_cycle;Max_cycle;Signal;HPM_P1;HPM_P2
2023/10/16 00:01:26;;;;;;;3.97;1.58;;;18.10;96.70;;;;;;4995910;28;20100;-79
2023/10/16 00:03:56;;;;;;;4.40;1.48;;;18.20;96.70;;;;;;4982381;28;20045;-80
2023/10/16 00:06:25;;;;;;;5.45;1.55;;;18.20;96.70;;;;;;4990142;28;20077;-80
2023/10/16 00:08:57;;;;;;;5.85;2.50;;;18.20;96.70;;;;;;4989168;28;20051;-80
2023/10/16 00:11:27;;;;;;;3.65;1.55;;;18.30;96.70;;;;;;5002942;28;20614;-80
2023/10/16 00:13:56;;;;;;;5.93;1.67;;;18.30;96.70;;;;;;5002467;28;20050;-80
2023/10/16 00:16:28;;;;;;;4.45;2.28;;;18.30;96.70;;;;;;5000406;28;20046;-80
2023/10/16 00:18:57;;;;;;;3.75;1.50;;;18.30;96.70;;;;;;4997436;28;20552;-79
2023/10/16 00:21:26;;;;;;;6.57;1.90;;;18.20;96.70;;;;;;5002619;28;20064;-80
2023/10/16 00:23:56;;;;;;;6.93;1.80;;;18.30;96.70;;;;;;4980579;28;20112;-79
2023/10/16 00:26:26;;;;;;;6.88;2.00;;;18.30;96.70;;;;;;5000021;28;20507;-80
2023/10/16 00:29:17;;;;;;;5.47;2.10;;;18.30;96.70;;;;;;5003902;28;20056;-80
2023/10/16 00:31:51;;;;;;;3.50;1.63;;;18.30;96.70;;;;;;4999439;28;20119;-79
2023/10/16 00:34:20;;;;;;;4.32;1.50;;;18.40;96.70;;;;;;5006771;28;20038;-80
2023/10/16 00:36:55;;;;;;;3.60;1.75;;;18.50;96.70;;;;;;5006524;28;20123;-80
2023/10/16 00:39:28;;;;;;;7.65;2.17;;;18.60;96.70;;;;;;4997682;28;20108;-80
2023/10/16 00:41:59;;;;;;;4.00;1.60;;;18.60;96.70;;;;;;4998556;28;20130;-80
2023/10/16 00:44:33;;;;;;;4.35;1.52;;;18.70;96.70;;;;;;5004385;28;20141;-79
2023/10/16 00:47:09;;;;;;;4.95;1.65;;;18.80;96.70;;;;;;5001031;28;20746;-79
2023/10/16 00:49:38;;;;;;;3.35;1.20;;;18.90;96.70;;;;;;5004705;28;20046;-80
2023/10/16 00:52:07;;;;;;;4.25;1.80;;;18.90;96.70;;;;;;5001081;28;20038;-80
2023/10/16 00:54:39;;;;;;;4.75;1.60;;;19.00;96.70;;;;;;5004302;28;20049;-79
2023/10/16 00:57:13;;;;;;;5.32;1.73;;;19.10;96.70;;;;;;4981798;28;20543;-80
2023/10/16 00:59:42;;;;;;;3.83;1.63;;;19.20;96.70;;;;;;5002775;28;20049;-80
2023/10/16 01:02:15;;;;;;;4.50;1.90;;;19.20;96.70;;;;;;5001295;28;20077;-80
2023/10/16 01:04:46;;;;;;;4.20;1.50;;;19.30;96.70;;;;;;5000798;28;20484;-80
2023/10/16 01:07:14;;;;;;;3.72;1.45;;;19.30;96.70;;;;;;5004404;28;20116;-80
2023/10/16 01:09:46;;;;;;;3.13;1.30;;;19.40;96.70;;;;;;4996874;28;20048;-80
2023/10/16 01:12:20;;;;;;;5.55;1.45;;;19.40;96.70;;;;;;5002401;28;20038;-80
2023/10/16 01:14:49;;;;;;;3.30;1.35;;;19.40;96.70;;;;;;5003448;28;20104;-80
2023/10/16 01:17:29;;;;;;;2.72;1.10;;;19.50;96.70;;;;;;4984714;28;20406;-80
2023/10/16 01:19:59;;;;;;;2.95;1.20;;;19.50;96.70;;;;;;4996997;28;20050;-80
2023/10/16 01:22:29;;;;;;;4.45;1.50;;;19.50;96.70;;;;;;5003436;28;20033;-80
2023/10/16 01:24:59;;;;;;;3.60;1.45;;;19.60;96.70;;;;;;4995072;28;20124;-80
2023/10/16 01:27:29;;;;;;;4.70;1.17;;;19.60;96.70;;;;;;4980540;28;20496;-81
2023/10/16 01:30:01;;;;;;;4.07;1.45;;;19.50;96.70;;;;;;5002972;28;20042;-81
2023/10/16 01:32:31;;;;;;;2.47;1.38;;;19.60;96.70;;;;;;4999840;28;20538;-80
2023/10/16 01:34:59;;;;;;;3.53;1.45;;;19.60;96.70;;;;;;5004258;28;20038;-81
2023/10/16 01:37:29;;;;;;;3.05;1.27;;;19.60;96.70;;;;;;4982627;28;20066;-80
2023/10/16 01:42:49;;;;;;;3.58;1.02;;;19.50;96.70;;;;;;4992433;28;20054;-81
2023/10/16 01:45:30;;;;;;;2.80;0.82;;;19.50;96.70;;;;;;5002519;28;20077;-80
2023/10/16 01:48:04;;;;;;;3.33;1.25;;;19.50;96.70;;;;;;5001056;28;20041;-82
2023/10/16 01:50:33;;;;;;;3.38;1.25;;;19.50;96.70;;;;;;5004734;28;20049;-80
2023/10/16 01:53:03;;;;;;;2.03;0.80;;;19.50;96.70;;;;;;4997111;28;20073;-80
2023/10/16 01:55:33;;;;;;;3.92;1.10;;;19.50;96.70;;;;;;4996749;28;20050;-80
2023/10/16 01:58:03;;;;;;;3.55;0.98;;;19.50;96.70;;;;;;4995597;28;20700;-80
2023/10/16 02:00:34;;;;;;;5.07;1.30;;;19.50;96.70;;;;;;4991341;28;20408;-80
2023/10/16 02:03:08;;;;;;;2.95;0.90;;;19.50;96.70;;;;;;5003847;28;20058;-78
2023/10/16 02:05:41;;;;;;;2.08;0.80;;;19.40;96.70;;;;;;4993030;28;20531;-80
2023/10/16 02:08:09;;;;;;;2.55;0.93;;;19.50;96.70;;;;;;5002177;28;20203;-83
2023/10/16 02:10:40;;;;;;;2.30;0.63;;;19.50;96.70;;;;;;4982886;28;20041;-80
2023/10/16 02:13:09;;;;;;;2.53;0.75;;;19.40;96.70;;;;;;5002978;28;20052;-79
2023/10/16 02:15:39;;;;;;;2.40;1.00;;;19.40;96.70;;;;;;5000051;28;20073;-80
2023/10/16 02:18:08;;;;;;;4.25;0.80;;;19.40;96.70;;;;;;4995335;28;20045;-80
2023/10/16 02:20:38;;;;;;;3.30;1.20;;;19.50;96.70;;;;;;5000666;28;20054;-80
2023/10/16 02:23:08;;;;;;;3.20;1.02;;;19.40;96.70;;;;;;4969718;28;20062;-80
2023/10/16 02:25:37;;;;;;;4.55;0.90;;;19.50;96.70;;;;;;4993607;28;20042;-81
2023/10/16 02:28:13;;;;;;;3.03;0.80;;;19.50;96.70;;;;;;4981595;28;20579;-80
2023/10/16 02:30:41;;;;;;;2.83;0.77;;;19.50;96.70;;;;;;4994315;28;20149;-79
2023/10/16 02:33:14;;;;;;;1.50;0.52;;;19.40;96.70;;;;;;4988896;28;20133;-80
2023/10/16 02:35:48;;;;;;;2.60;0.70;;;19.40;96.70;;;;;;4987911;28;20053;-80
2023/10/16 02:38:38;;;;;;;2.47;0.70;;;19.50;96.70;;;;;;4984111;28;20566;-80
2023/10/16 02:41:07;;;;;;;2.03;0.60;;;19.50;96.70;;;;;;4990557;28;20057;-80
2023/10/16 02:43:41;;;;;;;1.52;0.60;;;19.40;96.70;;;;;;4986084;28;20575;-81
2023/10/16 02:46:09;;;;;;;1.95;0.63;;;19.40;96.70;;;;;;4989747;28;20077;-81
2023/10/16 02:48:38;;;;;;;2.10;0.60;;;19.40;96.70;;;;;;4979430;28;20121;-81
2023/10/16 02:51:06;;;;;;;2.50;0.50;;;19.40;96.70;;;;;;4988283;28;20047;-80
2023/10/16 02:53:36;;;;;;;1.80;0.60;;;19.30;96.70;;;;;;4999059;28;20597;-80
2023/10/16 02:56:17;;;;;;;1.10;0.40;;;19.30;96.70;;;;;;4995201;28;20056;-81
2023/10/16 02:58:49;;;;;;;2.50;0.68;;;19.30;96.70;;;;;;4995120;28;20130;-81
2023/10/16 03:01:18;;;;;;;1.23;0.47;;;19.20;96.70;;;;;;5002067;28;20055;-81
2023/10/16 03:03:47;;;;;;;1.55;0.45;;;19.20;96.70;;;;;;5001588;28;20070;-81
2023/10/16 03:06:16;;;;;;;0.82;0.32;;;19.20;96.70;;;;;;5000750;28;20065;-80
2023/10/16 03:08:51;;;;;;;0.80;0.28;;;19.20;96.70;;;;;;4995423;28;20173;-81
2023/10/16 03:11:20;;;;;;;0.82;0.22;;;19.30;96.70;;;;;;4989146;28;20357;-81
2023/10/16 03:13:51;;;;;;;0.75;0.10;;;19.20;96.70;;;;;;5005259;28;20102;-82
2023/10/16 03:16:26;;;;;;;0.60;0.25;;;19.20;96.70;;;;;;5000596;28;20042;-82
2023/10/16 03:19:09;;;;;;;1.00;0.20;;;19.20;96.70;;;;;;5000970;28;20329;-81
2023/10/16 03:21:39;;;;;;;2.10;0.40;;;19.20;96.70;;;;;;5001934;28;20060;-80
2023/10/16 03:24:09;;;;;;;1.95;0.35;;;19.10;96.70;;;;;;4996611;28;20060;-79
2023/10/16 03:26:42;;;;;;;1.00;0.20;;;19.10;96.70;;;;;;4986770;28;20100;-79
2023/10/16 03:29:12;;;;;;;1.92;0.40;;;19.10;96.70;;;;;;5001833;28;20042;-79
2023/10/16 03:31:40;;;;;;;2.05;0.32;;;19.10;96.70;;;;;;4987847;28;20397;-79
2023/10/16 03:34:11;;;;;;;1.15;0.40;;;19.10;96.70;;;;;;5002345;28;20053;-79
2023/10/16 03:36:55;;;;;;;1.60;0.30;;;19.10;96.70;;;;;;4990032;28;20112;-78
2023/10/16 03:39:23;;;;;;;2.17;0.30;;;19.10;96.70;;;;;;4986570;28;20500;-78
2023/10/16 03:41:51;;;;;;;1.88;0.40;;;19.10;96.70;;;;;;5002395;28;20451;-79
2023/10/16 03:44:24;;;;;;;4.05;0.68;;;19.00;96.70;;;;;;5001990;28;20049;-78
2023/10/16 03:46:53;;;;;;;5.53;0.98;;;19.00;96.70;;;;;;4992049;28;20070;-78
2023/10/16 03:49:23;;;;;;;1.48;0.40;;;19.00;96.70;;;;;;4992184;28;20066;-78
2023/10/16 03:51:52;;;;;;;3.58;0.60;;;19.00;96.70;;;;;;4998122;28;20421;-79
2023/10/16 03:54:30;;;;;;;1.58;0.38;;;19.00;96.70;;;;;;5000921;28;20037;-79
2023/10/16 03:56:59;;;;;;;1.20;0.50;;;19.00;96.70;;;;;;4996081;28;20049;-79
2023/10/16 03:59:29;;;;;;;1.52;0.52;;;19.00;96.70;;;;;;4975921;28;20038;-79
2023/10/16 04:01:57;;;;;;;1.35;0.57;;;19.00;96.70;;;;;;4994368;28;20050;-78
2023/10/16 04:04:25;;;;;;;1.27;0.50;;;19.00;96.70;;;;;;4973770;28;20034;-78
2023/10/16 04:06:59;;;;;;;4.28;0.50;;;19.00;96.70;;;;;;5000458;28;20575;-78
2023/10/16 04:09:33;;;;;;;2.78;0.50;;;19.00;96.70;;;;;;4997273;28;20046;-80
2023/10/16 04:12:06;;;;;;;3.03;0.40;;;19.00;96.70;;;;;;4997240;28;20470;-78
2023/10/16 04:14:45;;;;;;;3.40;0.60;;;19.00;96.70;;;;;;4992892;28;20196;-78
2023/10/16 04:17:13;;;;;;;3.78;0.70;;;18.90;96.70;;;;;;5001464;28;20460;-78
2023/10/16 04:19:52;;;;;;;4.40;0.95;;;19.00;96.70;;;;;;4997328;28;20038;-78
2023/10/16 04:22:25;;;;;;;1.65;0.30;;;19.00;96.70;;;;;;5000223;28;20152;-78
2023/10/16 04:24:56;;;;;;;2.90;0.70;;;19.00;96.70;;;;;;5001488;28;20042;-78
2023/10/16 04:27:29;;;;;;;1.77;0.40;;;19.00;96.70;;;;;;4997777;28;20516;-79
2023/10/16 04:38:52;;;;;;;2.45;0.60;;;19.00;96.70;;;;;;4935748;29;20079;-78
2023/10/16 04:42:49;;;;;;;2.25;0.50;;;19.00;96.70;;;;;;5023043;28;20049;-79
2023/10/16 04:44:23;;;;;;;2.95;0.68;;;19.00;96.70;;;;;;5021518;28;20072;-79
2023/10/16 04:46:55;;;;;;;2.10;0.50;;;19.00;96.70;;;;;;4981434;28;20124;-79
2023/10/16 04:49:28;;;;;;;2.03;0.77;;;18.90;96.70;;;;;;5004526;28;20045;-79
2023/10/16 04:52:06;;;;;;;1.85;0.50;;;19.00;96.70;;;;;;5013597;28;20049;-79
2023/10/16 04:59:59;;;;;;;3.03;0.52;;;19.00;96.70;;;;;;5026305;28;20042;-80
2023/10/16 05:02:51;;;;;;;3.22;0.80;;;19.00;96.70;;;;;;5008423;28;20136;-77
2023/10/16 05:05:45;;;;;;;1.20;0.30;;;19.00;96.70;;;;;;5001171;28;20054;-79
2023/10/16 05:08:31;;;;;;;3.90;0.50;;;19.00;96.70;;;;;;5008538;28;20075;-79
2023/10/16 05:16:38;;;;;;;2.85;0.77;;;18.90;96.70;;;;;;4997967;28;20068;-79
2023/10/16 05:22:02;;;;;;;1.73;0.52;;;18.90;96.70;;;;;;5000581;28;20486;-79
2023/10/16 06:14:34;;;;;;;6.65;1.10;;;19.00;96.70;;;;;;5006943;28;20080;-79
2023/10/16 06:17:19;;;;;;;4.43;1.27;;;18.90;96.70;;;;;;5006884;28;20045;-78
2023/10/16 06:19:47;;;;;;;4.00;1.00;;;19.00;96.70;;;;;;4990287;28;20334;-79
2023/10/16 06:22:14;;;;;;;5.80;0.57;;;18.90;96.70;;;;;;5016631;28;20075;-78
2023/10/16 06:24:44;;;;;;;5.65;0.75;;;18.90;96.70;;;;;;5024520;28;20049;-79
2023/10/16 06:27:19;;;;;;;2.97;0.80;;;19.00;96.70;;;;;;4999514;28;20046;-78
2023/10/16 06:29:51;;;;;;;4.40;0.80;;;19.00;96.70;;;;;;4990596;28;20084;-80
2023/10/16 06:32:22;;;;;;;3.53;0.65;;;19.10;96.70;;;;;;5003384;28;20124;-79
2023/10/16 06:34:57;;;;;;;2.75;0.70;;;19.10;96.70;;;;;;4986362;28;20136;-79
2023/10/16 06:37:28;;;;;;;3.67;0.50;;;19.10;96.70;;;;;;4985712;28;20041;-80
2023/10/16 06:40:00;;;;;;;4.60;0.93;;;19.10;96.70;;;;;;5001447;28;20037;-79
2023/10/16 06:42:29;;;;;;;6.70;0.98;;;19.10;96.70;;;;;;5001330;28;20045;-79
2023/10/16 06:45:19;;;;;;;7.55;0.82;;;19.20;96.70;;;;;;4995097;28;20492;-78
2023/10/16 06:47:47;;;;;;;5.85;0.88;;;19.20;96.70;;;;;;4993799;28;20050;-79
2023/10/16 06:52:53;;;;;;;3.63;0.98;;;19.30;96.70;;;;;;5003419;28;20096;-79
2023/10/16 06:55:23;;;;;;;4.35;1.02;;;19.30;96.70;;;;;;4991524;28;20043;-80
2023/10/16 06:57:51;;;;;;;3.67;0.75;;;19.30;96.70;;;;;;5005460;28;20111;-81
2023/10/16 07:00:32;;;;;;;2.72;0.47;;;19.40;96.70;;;;;;4994211;28;20061;-79
2023/10/16 07:03:09;;;;;;;2.30;0.60;;;19.40;96.70;;;;;;4989250;28;20046;-80
2023/10/16 07:05:44;;;;;;;3.83;0.60;;;19.50;96.70;;;;;;5000948;28;20046;-79
2023/10/16 07:08:16;;;;;;;3.38;0.73;;;19.50;96.70;;;;;;4982187;28;20060;-80
2023/10/16 07:10:51;;;;;;;4.90;0.98;;;19.60;96.70;;;;;;4999905;28;20445;-80
2023/10/16 07:13:28;;;;;;;5.63;0.90;;;19.60;96.70;;;;;;5001513;28;20066;-82
2023/10/16 07:16:01;;;;;;;3.65;0.80;;;19.70;96.70;;;;;;4995721;28;20050;-81
2023/10/16 07:18:33;;;;;;;3.90;0.98;;;19.70;96.70;;;;;;4998212;28;20065;-81
2023/10/16 07:21:10;;;;;;;3.17;1.25;;;19.80;96.70;;;;;;5000521;28;20053;-81
2023/10/16 07:23:39;;;;;;;4.80;0.70;;;19.80;96.70;;;;;;4988978;28;20054;-81
2023/10/16 07:26:09;;;;;;;4.03;1.00;;;19.80;96.70;;;;;;4994963;28;20514;-80
2023/10/16 07:28:41;;;;;;;2.25;0.60;;;19.80;96.70;;;;;;5003838;28;20079;-81
2023/10/16 07:31:10;;;;;;;2.80;0.82;;;19.80;96.70;;;;;;5010350;28;20168;-80
2023/10/16 07:33:41;;;;;;;3.80;0.82;;;19.90;96.70;;;;;;5006897;28;20141;-80
2023/10/16 07:36:12;;;;;;;2.55;0.52;;;19.90;96.70;;;;;;4992075;28;20050;-80
2023/10/16 07:38:44;;;;;;;2.90;0.77;;;19.90;96.70;;;;;;5005887;28;20046;-80
2023/10/16 07:41:18;;;;;;;5.38;0.73;;;19.90;96.70;;;;;;4998023;28;20037;-83
2023/10/16 07:43:47;;;;;;;2.97;0.77;;;20.00;96.70;;;;;;5013931;28;20045;-81
2023/10/16 07:46:30;;;;;;;3.30;0.90;;;20.00;96.70;;;;;;5015126;28;20038;-81
2023/10/16 07:49:09;;;;;;;3.83;1.00;;;20.00;96.70;;;;;;5024811;28;20064;-81
2023/10/16 07:51:45;;;;;;;3.70;0.73;;;20.10;96.70;;;;;;5025531;28;20042;-80
2023/10/16 07:54:14;;;;;;;4.90;0.70;;;20.10;96.70;;;;;;5017067;28;20052;-81
2023/10/16 07:56:45;;;;;;;3.22;1.10;;;20.10;96.70;;;;;;4999574;28;20069;-80
2023/10/16 07:59:18;;;;;;;3.63;0.60;;;20.20;96.70;;;;;;4982243;28;21122;-80
2023/10/16 08:01:52;;;;;;;2.92;0.70;;;20.20;96.70;;;;;;5021452;28;20442;-79
2023/10/16 08:06:55;;;;;;;4.63;0.80;;;20.30;96.70;;;;;;4997628;28;20056;-79
2023/10/16 08:11:57;;;;;;;6.18;0.98;;;20.40;96.70;;;;;;5024224;28;20521;-80
2023/10/16 08:14:26;;;;;;;3.13;0.73;;;20.40;96.70;;;;;;5016505;28;20049;-80
2023/10/16 08:17:04;;;;;;;3.15;0.65;;;20.40;96.70;;;;;;4992093;28;20120;-82
2023/10/16 08:19:34;;;;;;;3.10;0.98;;;20.40;96.70;;;;;;5014907;28;20088;-80
2023/10/16 08:22:03;;;;;;;5.28;1.13;;;20.40;96.70;;;;;;4998601;28;20133;-81
2023/10/16 08:24:31;;;;;;;5.88;1.02;;;20.50;96.70;;;;;;5006127;28;20037;-81
2023/10/16 08:29:54;;;;;;;2.83;0.70;;;20.50;96.70;;;;;;5019838;28;20052;-79
2023/10/16 08:35:25;;;;;;;2.80;0.70;;;20.60;96.70;;;;;;4942851;28;20650;-81
2023/10/16 08:37:59;;;;;;;2.38;0.38;;;20.60;96.70;;;;;;4959170;28;20058;-81
2023/10/16 08:40:34;;;;;;;3.78;0.60;;;20.70;96.70;;;;;;4953758;28;20051;-81
2023/10/16 08:43:07;;;;;;;3.47;1.08;;;20.80;96.70;;;;;;4939316;28;20055;-79
2023/10/16 08:45:47;;;;;;;2.63;0.60;;;20.80;96.70;;;;;;4948505;28;20090;-85
2023/10/16 08:48:17;;;;;;;2.45;0.55;;;20.90;96.70;;;;;;4960575;28;20723;-79
2023/10/16 08:50:52;;;;;;;3.38;0.52;;;21.00;96.70;;;;;;4936172;28;20118;-79
2023/10/16 08:53:33;;;;;;;3.72;0.88;;;21.00;96.70;;;;;;4945854;29;20055;-80
2023/10/16 08:56:07;;;;;;;1.90;0.60;;;21.10;96.70;;;;;;4947213;28;20047;-79
2023/10/16 08:58:40;;;;;;;2.63;0.50;;;21.10;96.70;;;;;;4955826;28;20079;-79
2023/10/16 09:01:09;;;;;;;3.38;0.63;;;21.20;96.70;;;;;;4949393;28;20848;-80
2023/10/16 09:03:42;;;;;;;1.75;0.57;;;21.20;96.70;;;;;;4947611;28;20054;-79
2023/10/16 09:06:21;;;;;;;4.88;1.10;;;21.20;96.70;;;;;;4948356;28;20042;-78
2023/10/16 09:08:49;;;;;;;2.28;0.50;;;21.30;96.70;;;;;;4958527;28;20058;-80
2023/10/16 09:11:19;;;;;;;3.15;0.50;;;21.40;96.70;;;;;;4992174;28;20046;-80
2023/10/16 09:13:51;;;;;;;2.22;0.47;;;21.40;96.70;;;;;;4976799;28;20411;-80
2023/10/16 09:16:23;;;;;;;4.68;1.00;;;21.40;96.70;;;;;;4982972;28;20790;-78
2023/10/16 09:18:53;;;;;;;4.55;0.75;;;21.40;96.70;;;;;;5016248;28;20073;-80
2023/10/16 09:21:24;;;;;;;1.90;0.40;;;21.50;96.70;;;;;;5002961;28;20045;-84
2023/10/16 09:23:58;;;;;;;3.40;0.60;;;21.60;96.70;;;;;;4992418;28;20478;-79
2023/10/16 09:26:32;;;;;;;2.95;0.68;;;21.60;96.70;;;;;;4983019;28;20058;-79
2023/10/16 09:29:13;;;;;;;4.15;0.60;;;21.70;96.70;;;;;;5020726;28;20575;-81
2023/10/16 09:31:43;;;;;;;4.70;0.82;;;21.70;96.70;;;;;;5006345;28;20053;-80
2023/10/16 09:34:18;;;;;;;3.45;0.70;;;21.70;96.70;;;;;;5001473;28;20045;-83
2023/10/16 09:37:15;;;;;;;4.38;0.60;;;21.70;96.70;;;;;;5024869;28;20042;-81
2023/10/16 09:39:36;;;;;;;3.63;0.80;;;21.70;96.70;;;;;;5006976;28;20083;-82
2023/10/16 09:42:12;;;;;;;2.72;0.57;;;21.70;96.70;;;;;;5024579;28;20469;-85
2023/10/16 09:44:56;;;;;;;5.05;0.85;;;21.70;96.70;;;;;;4996382;28;20045;-82
2023/10/16 09:47:25;;;;;;;5.47;0.80;;;21.80;96.70;;;;;;4998215;28;20054;-82
2023/10/16 09:49:55;;;;;;;3.38;0.57;;;21.80;96.70;;;;;;4986792;28;20459;-80
2023/10/16 09:52:23;;;;;;;3.03;0.88;;;21.90;96.70;;;;;;5016854;28;20077;-81
2023/10/16 09:54:52;;;;;;;2.50;0.70;;;21.90;96.70;;;;;;5003077;28;20037;-81
2023/10/16 09:57:27;;;;;;;2.80;0.60;;;21.90;96.70;;;;;;5003256;28;20627;-77
2023/10/16 10:00:07;;;;;;;3.05;0.80;;;22.00;96.70;;;;;;4983914;28;20406;-78
2023/10/16 10:02:39;;;;;;;3.78;0.90;;;22.10;96.70;;;;;;4997247;28;20515;-78
2023/10/16 10:05:12;;;;;;;3.85;0.50;;;22.10;96.70;;;;;;4997085;28;20053;-78
2023/10/16 10:07:47;;;;;;;4.72;0.85;;;22.30;96.70;;;;;;5006794;28;20041;-79
2023/10/16 10:13:08;;;;;;;5.35;0.68;;;22.40;96.70;;;;;;5015223;28;20049;-79
2023/10/16 10:15:44;;;;;;;2.85;0.88;;;22.50;96.70;;;;;;4997718;28;20057;-78
2023/10/16 10:19:01;;;;;;;2.30;0.52;;;22.60;96.70;;;;;;4999194;28;20452;-80
2023/10/16 10:21:18;;;;;;;4.68;0.80;;;22.70;96.70;;;;;;5012072;28;20050;-77
2023/10/16 10:23:50;;;;;;;3.75;0.70;;;22.80;96.70;;;;;;5004308;28;20095;-77
2023/10/16 10:26:18;;;;;;;4.68;0.75;;;22.80;96.70;;;;;;5015501;28;20485;-77
2023/10/16 10:29:04;;;;;;;2.85;0.40;;;22.80;96.70;;;;;;5006523;28;20144;-77
2023/10/16 10:31:34;;;;;;;1.55;0.50;;;22.90;96.70;;;;;;5001033;28;20046;-78
2023/10/16 10:34:18;;;;;;;3.22;0.40;;;23.00;96.70;;;;;;5006537;28;20042;-79
2023/10/16 10:36:47;;;;;;;2.65;0.70;;;23.00;96.70;;;;;;5023162;28;20103;-78
2023/10/16 10:39:43;;;;;;;2.45;0.80;;;23.00;96.70;;;;;;4982131;28;20045;-78
2023/10/16 10:42:36;;;;;;;5.70;0.90;;;23.10;96.70;;;;;;5007523;28;20056;-78
2023/10/16 10:47:54;;;;;;;2.72;0.77;;;23.30;96.70;;;;;;4996491;28;20570;-79
2023/10/16 10:50:26;;;;;;;2.67;0.52;;;23.30;96.70;;;;;;5004584;28;20045;-79
2023/10/16 10:52:54;;;;;;;2.90;0.63;;;23.30;96.70;;;;;;5006691;28;20053;-78
2023/10/16 10:55:22;;;;;;;4.40;1.08;;;23.20;96.70;;;;;;4990604;28;20407;-78
2023/10/16 10:57:56;;;;;;;2.70;0.82;;;23.10;96.70;;;;;;4993026;28;20140;-79
2023/10/16 11:05:46;;;;;;;1.98;0.50;;;23.20;96.70;;;;;;5022690;28;20038;-78
2023/10/16 11:10:46;;;;;;;4.97;0.98;;;23.20;96.70;;;;;;5005215;28;20958;-76
2023/10/16 11:13:17;;;;;;;3.72;0.70;;;23.10;96.70;;;;;;4998057;28;20053;-78
2023/10/16 11:15:46;;;;;;;3.08;0.73;;;23.10;96.70;;;;;;5023684;28;20410;-78
2023/10/16 11:18:18;;;;;;;4.07;0.63;;;23.20;96.70;;;;;;5005778;28;20046;-77
2023/10/16 11:20:49;;;;;;;1.67;0.40;;;23.30;96.70;;;;;;4996917;28;20058;-78
2023/10/16 11:23:18;;;;;;;3.08;0.52;;;23.30;96.70;;;;;;4997306;28;20177;-79
2023/10/16 11:25:51;;;;;;;2.42;0.73;;;23.20;96.70;;;;;;4990035;28;20069;-79
2023/10/16 11:28:20;;;;;;;4.20;0.50;;;23.20;96.70;;;;;;4976004;28;20399;-78
2023/10/16 11:30:50;;;;;;;3.85;0.63;;;23.20;96.70;;;;;;4994607;28;20151;-78
2023/10/16 11:33:26;;;;;;;1.75;0.50;;;23.20;96.70;;;;;;4992273;28;20621;-78
2023/10/16 11:36:02;;;;;;;3.88;0.70;;;23.20;96.70;;;;;;4988917;28;20046;-79
2023/10/16 11:38:34;;;;;;;3.95;0.75;;;23.30;96.70;;;;;;5005896;28;20053;-77
2023/10/16 11:41:12;;;;;;;3.85;0.90;;;23.30;96.70;;;;;;5005827;28;20053;-78
2023/10/16 11:43:53;;;;;;;2.80;0.60;;;23.40;96.70;;;;;;5005781;28;20049;-78
2023/10/16 11:46:29;;;;;;;2.78;0.43;;;23.30;96.70;;;;;;5016428;28;20065;-79
2023/10/16 11:51:47;;;;;;;2.45;0.50;;;23.30;96.70;;;;;;5017047;28;20514;-78
2023/10/16 11:54:19;;;;;;;2.55;0.43;;;23.30;96.70;;;;;;5021720;28;20087;-78
2023/10/16 11:56:50;;;;;;;3.08;0.60;;;23.30;96.70;;;;;;5019317;28;20068;-78
2023/10/16 11:59:22;;;;;;;2.45;0.40;;;23.20;96.70;;;;;;5014759;28;20045;-79
2023/10/16 12:01:53;;;;;;;4.20;0.73;;;23.10;96.70;;;;;;4997052;28;20115;-78
2023/10/16 12:04:32;;;;;;;4.35;0.40;;;23.00;96.70;;;;;;5019197;28;20100;-77
2023/10/16 12:07:01;;;;;;;3.70;0.70;;;22.90;96.70;;;;;;5001707;28;20056;-77
2023/10/16 12:09:36;;;;;;;4.97;1.25;;;22.80;96.70;;;;;;5006390;28;20565;-77
2023/10/16 12:12:08;;;;;;;6.25;3.20;;;22.70;96.70;;;;;;4972552;28;20140;-79
2023/10/16 12:14:37;;;;;;;7.38;3.90;;;22.60;96.70;;;;;;4981821;28;20170;-77
2023/10/16 12:17:11;;;;;;;12.48;7.55;;;22.60;96.70;;;;;;4997055;28;20045;-78
2023/10/16 12:19:45;;;;;;;7.30;3.10;;;22.50;96.70;;;;;;5005359;28;20644;-79
2023/10/16 12:22:20;;;;;;;5.50;1.85;;;22.50;96.70;;;;;;4986345;28;20625;-78
2023/10/16 12:24:49;;;;;;;8.00;2.80;;;22.30;96.70;;;;;;4995108;28;20053;-78
2023/10/16 12:27:18;;;;;;;5.93;2.80;;;22.30;96.70;;;;;;4994216;28;20726;-78
2023/10/16 12:29:46;;;;;;;3.72;1.23;;;22.30;96.70;;;;;;5016361;28;20100;-80
2023/10/16 12:32:14;;;;;;;2.90;1.10;;;22.40;96.70;;;;;;5003906;28;20503;-77
2023/10/16 12:34:44;;;;;;;5.40;1.20;;;22.30;96.70;;;;;;5004803;28;20076;-78
2023/10/16 12:37:13;;;;;;;3.70;1.20;;;22.20;96.70;;;;;;4996726;28;20055;-78
2023/10/16 12:40:27;;;;;;;3.22;1.08;;;22.10;96.70;;;;;;5004591;28;20103;-79
2023/10/16 12:42:58;;;;;;;3.88;1.10;;;22.10;96.70;;;;;;5015717;28;20050;-79
2023/10/16 12:45:27;;;;;;;3.85;1.10;;;22.20;96.70;;;;;;5003886;28;20049;-79
2023/10/16 12:47:56;;;;;;;3.95;1.13;;;22.20;96.70;;;;;;4986525;28;20152;-79
2023/10/16 12:50:27;;;;;;;3.20;0.80;;;22.20;96.70;;;;;;4989187;28;20462;-78
2023/10/16 12:52:57;;;;;;;2.97;0.77;;;22.10;96.70;;;;;;5013931;28;20119;-79
2023/10/16 12:55:26;;;;;;;3.00;0.68;;;22.00;96.70;;;;;;4980391;28;20564;-78
2023/10/16 12:57:54;;;;;;;2.33;0.73;;;21.90;96.70;;;;;;5004854;28;20045;-79
2023/10/16 13:00:23;;;;;;;1.83;0.68;;;22.00;96.70;;;;;;5004813;28;20510;-78
2023/10/16 13:02:52;;;;;;;4.65;0.60;;;21.90;96.70;;;;;;4988747;28;20035;-79
2023/10/16 13:05:24;;;;;;;3.38;0.70;;;21.90;96.70;;;;;;4998976;28;20141;-76
2023/10/16 13:07:56;;;;;;;4.43;0.60;;;21.90;96.70;;;;;;5004921;28;20050;-78
2023/10/16 13:10:28;;;;;;;5.85;1.15;;;21.90;96.70;;;;;;4986383;28;20085;-78
2023/10/16 13:12:57;;;;;;;3.40;0.82;;;21.90;96.70;;;;;;4996638;28;20123;-79
2023/10/16 13:15:29;;;;;;;3.97;0.63;;;21.90;96.70;;;;;;5014278;28;20038;-78
2023/10/16 13:17:58;;;;;;;4.10;0.98;;;21.90;96.70;;;;;;5005512;28;20046;-79
2023/10/16 13:20:27;;;;;;;2.70;0.65;;;21.80;96.70;;;;;;5014182;28;20073;-78
2023/10/16 13:22:58;;;;;;;4.20;0.80;;;21.90;96.70;;;;;;5008808;28;20040;-78
2023/10/16 13:25:34;;;;;;;3.65;0.57;;;21.90;96.70;;;;;;5007445;28;20458;-78
2023/10/16 13:28:03;;;;;;;5.47;1.02;;;21.90;96.70;;;;;;5006402;28;20081;-78
2023/10/16 13:30:32;;;;;;;2.83;0.60;;;21.90;96.70;;;;;;5016171;28;20739;-78
2023/10/16 13:33:06;;;;;;;3.55;0.75;;;21.90;96.70;;;;;;5003654;28;20116;-78
2023/10/16 13:35:38;;;;;;;4.15;1.02;;;21.90;96.70;;;;;;5007769;28;20057;-78
2023/10/16 13:38:10;;;;;;;6.80;0.82;;;21.90;96.70;;;;;;5016649;28;20135;-77
2023/10/16 13:40:38;;;;;;;3.85;0.88;;;22.00;96.70;;;;;;4992393;28;20042;-79
2023/10/16 13:43:13;;;;;;;3.92;0.70;;;21.90;96.70;;;;;;5007686;28;20045;-78
2023/10/16 13:45:41;;;;;;;3.58;0.60;;;21.90;96.70;;;;;;5023180;28;20120;-77
2023/10/16 13:48:12;;;;;;;3.45;0.82;;;22.00;96.70;;;;;;5015796;28;20128;-78
2023/10/16 13:50:40;;;;;;;3.65;0.70;;;21.90;96.70;;;;;;5015232;28;20506;-78
2023/10/16 13:53:10;;;;;;;2.80;0.70;;;21.90;96.70;;;;;;4999979;28;20050;-78
2023/10/16 13:55:41;;;;;;;4.72;0.60;;;22.00;96.70;;;;;;5006928;28;20060;-77
2023/10/16 13:58:10;;;;;;;2.47;0.80;;;22.00;96.70;;;;;;5007527;28;20051;-78
2023/10/16 14:00:38;;;;;;;3.03;1.10;;;21.80;96.70;;;;;;4978082;28;20057;-78
2023/10/16 14:05:50;;;;;;;2.40;0.90;;;21.60;96.70;;;;;;5005401;28;20136;-77
2023/10/16 14:08:30;;;;;;;2.15;0.65;;;21.60;96.70;;;;;;5007976;28;20060;-77
2023/10/16 14:11:00;;;;;;;3.00;0.85;;;21.70;96.70;;;;;;5006708;28;20124;-78
2023/10/16 14:13:31;;;;;;;2.72;0.60;;;21.60;96.70;;;;;;4999246;28;20057;-77
2023/10/16 14:18:42;;;;;;;3.45;0.95;;;21.60;96.70;;;;;;5014106;28;20091;-78
2023/10/16 14:21:13;;;;;;;4.60;1.00;;;21.60;96.70;;;;;;4988046;28;20046;-78
2023/10/16 14:23:43;;;;;;;2.25;0.65;;;21.70;96.70;;;;;;4981927;28;20078;-78
2023/10/16 14:26:21;;;;;;;4.32;1.00;;;21.70;96.70;;;;;;5021732;28;20056;-77
2023/10/16 14:28:59;;;;;;;6.15;0.70;;;21.60;96.70;;;;;;5014004;28;20065;-78
2023/10/16 14:31:29;;;;;;;7.85;1.23;;;21.60;96.70;;;;;;5015689;28;20069;-78
2023/10/16 14:33:58;;;;;;;4.03;0.93;;;21.70;96.70;;;;;;5007429;28;20127;-78
2023/10/16 14:36:29;;;;;;;3.28;0.60;;;21.70;96.70;;;;;;4989382;28;20052;-78
2023/10/16 14:39:03;;;;;;;5.30;0.65;;;21.70;96.70;;;;;;5003724;28;20057;-78
2023/10/16 14:41:32;;;;;;;3.88;0.90;;;21.70;96.70;;;;;;4998099;28;20049;-76
2023/10/16 14:44:04;;;;;;;3.83;0.80;;;21.80;96.70;;;;;;4989861;28;20050;-78
2023/10/16 14:46:48;;;;;;;2.00;0.75;;;21.80;96.70;;;;;;5001501;28;20460;-77
2023/10/16 14:49:19;;;;;;;3.08;0.80;;;21.70;96.70;;;;;;5000632;28;20042;-78
2023/10/16 14:51:50;;;;;;;2.92;0.60;;;21.60;96.70;;;;;;5021985;28;20168;-77
2023/10/16 14:54:23;;;;;;;3.92;0.68;;;21.60;96.70;;;;;;4996771;28;20184;-76
2023/10/16 14:56:52;;;;;;;4.07;1.00;;;21.60;96.70;;;;;;5023000;28;20041;-75
2023/10/16 14:59:32;;;;;;;5.10;0.93;;;21.50;96.70;;;;;;4998861;28;20073;-77
2023/10/16 15:02:00;;;;;;;4.30;0.70;;;21.40;96.70;;;;;;5019420;28;20057;-76
2023/10/16 15:04:29;;;;;;;4.15;0.95;;;21.40;96.70;;;;;;5014603;28;20041;-75
2023/10/16 15:07:04;;;;;;;2.40;0.68;;;21.30;96.70;;;;;;4999503;28;20050;-76